createdAt,value
2022-10-16T00:03:59.065Z,3.4
2022-10-16T00:09:01.031Z,3.3
2022-10-16T00:14:03.004Z,3.2
2022-10-16T00:19:05.103Z,3.3
2022-10-16T00:24:07.719Z,3.4
2022-10-16T00:29:09.706Z,3.6
2022-10-16T00:34:11.642Z,3.3
2022-10-16T00:39:13.595Z,3.6
2022-10-16T00:44:15.740Z,3.4
2022-10-16T00:49:17.679Z,3.4
2022-10-16T00:54:19.637Z,3.4
2022-10-16T00:59:21.799Z,3.2
2022-10-16T01:04:23.951Z,5.2
2022-10-16T01:09:24.768Z,3.5
2022-10-16T01:14:26.967Z,3.5
2022-10-16T01:19:29.112Z,3.4
2022-10-16T01:24:31.295Z,3.8
2022-10-16T01:29:33.769Z,3.5
2022-10-16T01:34:35.945Z,3.6
2022-10-16T01:39:38.162Z,3.5
2022-10-16T01:44:40.118Z,3.4
2022-10-16T01:49:42.082Z,3.5
2022-10-16T01:54:44.721Z,4
2022-10-16T01:59:47.159Z,4.2
2022-10-16T02:04:49.292Z,4.3
2022-10-16T02:09:51.176Z,6.2
2022-10-16T02:14:51.727Z,4.6
2022-10-16T02:19:53.808Z,4.5
2022-10-16T02:24:55.988Z,4.6
2022-10-16T02:29:57.048Z,4.6
2022-10-16T02:34:57.688Z,4.7
2022-10-16T02:39:59.651Z,4.8
2022-10-16T02:45:02.057Z,4.7
2022-10-16T02:50:04.127Z,4.6
2022-10-16T02:55:05.989Z,4.6
2022-10-16T03:00:07.900Z,4.7
2022-10-16T03:05:09.908Z,4.8
2022-10-16T03:10:11.980Z,4.9
2022-10-16T03:15:14.155Z,4.8
2022-10-16T03:20:16.315Z,4.7
2022-10-16T03:25:18.213Z,4.9
2022-10-16T03:30:20.516Z,4.8
2022-10-16T03:35:22.469Z,4.8
2022-10-16T03:40:24.435Z,5.2
2022-10-16T03:45:26.811Z,4.9
2022-10-16T03:50:28.808Z,5.2
2022-10-16T03:55:30.785Z,5
2022-10-16T04:00:33.045Z,5.2
2022-10-16T04:05:35.200Z,5.1
2022-10-16T04:10:37.169Z,4.9
2022-10-16T04:15:39.333Z,5.3
2022-10-16T04:20:41.713Z,5.4
2022-10-16T04:25:43.649Z,5.5
2022-10-16T04:30:45.565Z,6.3
2022-10-16T04:35:47.499Z,6.1
2022-10-16T04:40:49.640Z,5.6
2022-10-16T04:45:51.871Z,5.6
2022-10-16T04:50:56.067Z,5.8
2022-10-16T04:55:58.310Z,6.3
2022-10-16T05:01:00.275Z,6.7
2022-10-16T05:06:02.191Z,6
2022-10-16T05:11:04.186Z,6.3
2022-10-16T05:16:06.095Z,6.1
2022-10-16T05:21:08.344Z,6.2
2022-10-16T05:26:10.246Z,6.1
2022-10-16T05:31:12.215Z,6.2
2022-10-16T05:36:14.260Z,6
2022-10-16T05:41:16.560Z,6.2
2022-10-16T05:46:18.574Z,5.9
2022-10-16T05:51:20.687Z,5.6
2022-10-16T05:56:22.664Z,5.8
2022-10-16T06:01:25.209Z,5.9
2022-10-16T06:06:27.758Z,5.6
2022-10-16T06:11:29.662Z,5.5
2022-10-16T06:16:31.580Z,5.8
2022-10-16T06:21:33.613Z,5.2
2022-10-16T06:26:35.799Z,5.2
2022-10-16T06:31:37.808Z,5.5
2022-10-16T06:36:39.819Z,5
2022-10-16T06:41:41.845Z,4.8
2022-10-16T06:46:43.822Z,4.6
2022-10-16T06:51:45.789Z,4.7
2022-10-16T06:56:47.733Z,4.7
2022-10-16T07:01:49.956Z,4.7
2022-10-16T07:06:52.431Z,4.4
2022-10-16T07:11:54.447Z,4.8
2022-10-16T07:16:56.565Z,6.3
2022-10-16T07:21:56.965Z,4.2
2022-10-16T07:26:58.947Z,4.1
2022-10-16T07:32:01.535Z,4.1
2022-10-16T07:37:03.668Z,4.1
2022-10-16T07:42:05.885Z,3.9
2022-10-16T07:47:07.828Z,4.3
2022-10-16T07:52:09.770Z,4.2
2022-10-16T07:57:11.825Z,4
2022-10-16T08:02:13.872Z,3.8
2022-10-16T08:07:15.805Z,3.6
2022-10-16T08:12:17.701Z,3.2
2022-10-16T08:17:19.852Z,3.2
2022-10-16T08:22:22.298Z,3.2
2022-10-16T08:27:24.503Z,3.2
2022-10-16T08:32:28.924Z,4.9
2022-10-16T08:37:29.531Z,4.6
2022-10-16T08:42:30.458Z,3.1
2022-10-16T08:47:32.837Z,3
2022-10-16T08:52:34.790Z,3.1
2022-10-16T08:57:36.735Z,2.8
2022-10-16T09:02:38.888Z,2.9
2022-10-16T09:07:40.809Z,2.9
2022-10-16T09:12:42.718Z,4.1
2022-10-16T09:17:43.325Z,2.9
2022-10-16T09:22:45.656Z,2.8
2022-10-16T09:27:47.635Z,2.5
2022-10-16T09:32:50.022Z,3.8
2022-10-16T09:37:50.523Z,2.6
2022-10-16T09:42:52.540Z,2.7
2022-10-16T09:47:58.586Z,2.7
2022-10-16T09:53:00.982Z,2.6
2022-10-16T09:58:02.939Z,2.7
2022-10-16T10:03:05.030Z,3.7
2022-10-16T10:08:05.399Z,2.7
2022-10-16T10:13:07.424Z,2.7
2022-10-16T10:18:09.307Z,2.4
2022-10-16T10:23:11.238Z,2.5
2022-10-16T10:28:13.413Z,2.8
2022-10-16T10:33:15.686Z,2.6
2022-10-16T10:38:17.579Z,2.7
2022-10-16T10:43:19.595Z,2.5
2022-10-16T10:48:21.970Z,2.5
2022-10-16T10:53:24.187Z,2.5
2022-10-16T10:58:26.333Z,2.5
2022-10-16T11:03:36.548Z,2.3
2022-10-16T11:08:38.784Z,2.6
2022-10-16T11:13:40.866Z,3.1
2022-10-16T11:18:41.282Z,2.5
2022-10-16T11:23:43.280Z,2.5
2022-10-16T11:28:45.392Z,2.6
2022-10-16T11:33:47.982Z,2.5
2022-10-16T11:38:49.993Z,2.3
2022-10-16T11:43:52.135Z,2.6
2022-10-16T11:48:54.675Z,2.5
2022-10-16T11:53:58.933Z,2.4
2022-10-16T11:59:01.310Z,2.4
2022-10-16T12:04:03.403Z,2.6
2022-10-16T12:09:05.609Z,2.4
2022-10-16T12:14:07.565Z,2.4
2022-10-16T12:19:09.686Z,2.4
2022-10-16T12:24:11.911Z,2.7
2022-10-16T12:29:12.713Z,2.4
2022-10-16T12:34:14.889Z,2.4
2022-10-16T12:39:16.823Z,2.3
2022-10-16T12:44:18.754Z,2.4
2022-10-16T12:49:20.617Z,2.6
2022-10-16T12:54:22.575Z,2.4
2022-10-16T12:59:24.606Z,2.5
2022-10-16T13:04:26.457Z,2.4
2022-10-16T13:09:28.375Z,2.3
2022-10-16T13:14:30.508Z,3.2
2022-10-16T13:19:32.620Z,2.3
2022-10-16T13:24:34.862Z,2.2
2022-10-16T13:29:36.760Z,2.3
2022-10-16T13:34:39.023Z,2.3
2022-10-16T13:39:40.967Z,2.3
2022-10-16T13:44:43.016Z,2.3
2022-10-16T13:49:45.039Z,2.2
2022-10-16T13:54:47.005Z,2.3
2022-10-16T13:59:48.911Z,2.2
2022-10-16T14:04:50.979Z,2.4
2022-10-16T14:09:52.913Z,2.3
2022-10-16T14:14:54.763Z,2.3
2022-10-16T14:20:02.555Z,2.4
2022-10-16T14:24:59.177Z,2.6
2022-10-16T14:30:01.092Z,3.5
2022-10-16T14:35:01.430Z,2.5
2022-10-16T14:40:03.659Z,2.3
2022-10-16T14:45:05.894Z,2.4
2022-10-16T14:50:08.792Z,2.3
2022-10-16T14:55:11.075Z,2.5
2022-10-16T15:00:13.400Z,2.7
2022-10-16T15:05:15.451Z,2.6
2022-10-16T15:10:17.403Z,2.8
2022-10-16T15:15:19.321Z,2.6
2022-10-16T15:20:21.228Z,2.8
2022-10-16T15:25:23.426Z,3.1
2022-10-16T15:30:25.367Z,3
2022-10-16T15:35:27.455Z,2.8
2022-10-16T15:40:29.371Z,2.9
2022-10-16T15:45:31.280Z,2.7
2022-10-16T15:50:33.706Z,2.8
2022-10-16T15:55:35.965Z,3.1
2022-10-16T16:00:37.865Z,3.5
2022-10-16T16:05:46.535Z,3.4
2022-10-16T16:10:48.963Z,3.7
2022-10-16T16:15:50.874Z,3.7
2022-10-16T16:20:52.899Z,4
2022-10-16T16:25:54.862Z,3.7
2022-10-16T16:30:56.754Z,3.9
2022-10-16T16:35:58.686Z,4.1
2022-10-16T16:41:01.440Z,4.5
2022-10-16T16:46:03.609Z,4.5
2022-10-16T16:51:05.925Z,4.3
2022-10-16T16:56:07.793Z,4.3
2022-10-16T17:01:21.215Z,4.6
2022-10-16T17:06:13.768Z,4.3
2022-10-16T17:11:15.967Z,5.2
2022-10-16T17:16:17.889Z,4.9
2022-10-16T17:21:19.830Z,5.1
2022-10-16T17:26:22.132Z,5.7
2022-10-16T17:31:24.305Z,6.1
2022-10-16T17:36:26.273Z,6.6
2022-10-16T17:41:28.270Z,5.9
2022-10-16T17:46:30.294Z,6.2
2022-10-16T17:51:37.459Z,6
2022-10-16T17:56:39.443Z,6
2022-10-16T18:01:41.842Z,6.1
2022-10-16T18:06:44.273Z,13.9
2022-10-16T18:11:46.238Z,6.4
2022-10-16T18:16:48.220Z,6.2
2022-10-16T18:21:51.131Z,6.6
2022-10-16T18:26:53.405Z,7.2
2022-10-16T18:31:55.728Z,6.8
2022-10-16T18:36:58.165Z,7.6
2022-10-16T18:42:00.420Z,6.9
2022-10-16T18:47:02.434Z,7.2
2022-10-16T18:52:04.884Z,6.9
2022-10-16T18:57:07.362Z,6.3
2022-10-16T19:02:09.529Z,5.8
2022-10-16T19:07:11.452Z,5.7
2022-10-16T19:12:13.603Z,5.9
2022-10-16T19:17:15.626Z,6.4
2022-10-16T19:24:12.767Z,6.2
2022-10-16T19:27:24.979Z,6
2022-10-16T19:32:27.913Z,5.8
2022-10-16T19:37:30.930Z,5.3
2022-10-16T19:42:33.009Z,5.8
2022-10-16T19:47:34.953Z,5.7
2022-10-16T19:52:36.978Z,5.8
2022-10-16T19:57:39.559Z,6
2022-10-16T20:02:41.663Z,6.8
2022-10-16T20:07:43.755Z,6.8
2022-10-16T20:12:45.977Z,7
2022-10-16T20:17:47.994Z,7.1
2022-10-16T20:22:50.149Z,7
2022-10-16T20:27:52.244Z,6.6
2022-10-16T20:32:54.730Z,6.8
2022-10-16T20:37:57.019Z,7.5
2022-10-16T20:42:59.285Z,7.4
2022-10-16T20:48:11.910Z,6.2
2022-10-16T20:53:04.165Z,6.6
2022-10-16T20:58:06.144Z,6.4
2022-10-16T21:03:08.061Z,7.2
2022-10-16T21:08:10.013Z,5.8
2022-10-16T21:13:11.924Z,5.9
2022-10-16T21:18:13.903Z,6
2022-10-16T21:23:15.898Z,6.4
2022-10-16T21:28:17.828Z,6.1
2022-10-16T21:33:19.952Z,34.1
2022-10-16T21:38:22.023Z,10.3
2022-10-16T21:43:23.981Z,7.9
2022-10-16T21:48:26.253Z,9.3
2022-10-16T21:53:28.229Z,10.6
2022-10-16T21:58:30.174Z,11.6
2022-10-16T22:03:32.267Z,10.9
2022-10-16T22:08:34.362Z,11.5
2022-10-16T22:13:36.471Z,11.6
2022-10-16T22:18:39.349Z,11.5
2022-10-16T22:23:41.379Z,11.4
2022-10-16T22:28:43.517Z,11.8
2022-10-16T22:33:45.811Z,11
2022-10-16T22:38:47.823Z,31.2
2022-10-16T22:43:49.809Z,11.6
2022-10-16T22:48:51.972Z,10.4
2022-10-16T22:53:56.070Z,10.8
2022-10-16T22:58:58.030Z,9.8
2022-10-16T23:03:59.912Z,9
2022-10-16T23:09:02.198Z,9.2
2022-10-16T23:14:04.303Z,10.3
2022-10-16T23:19:06.664Z,9.8
2022-10-16T23:24:12.097Z,10.3
2022-10-16T23:29:14.121Z,9.5
2022-10-16T23:34:16.382Z,9.4
2022-10-16T23:39:18.284Z,8.7
2022-10-16T23:44:20.204Z,8.4
2022-10-16T23:49:22.102Z,8.7
2022-10-16T23:54:23.983Z,8.1
2022-10-16T23:59:25.957Z,8.2
